sensor_id;sensor_type;location;lat;lon;timestamp;P1;durP1;ratioP1;P2;durP2;ratioP2
9115;SDS011;4593;53.652;10.168;2023-04-01T00:00:26;7.17;;;3.97;;
9115;SDS011;4593;53.652;10.168;2023-04-01T00:02:52;9.30;;;3.83;;
9115;SDS011;4593;53.652;10.168;2023-04-01T00:05:17;9.50;;;3.43;;
9115;SDS011;4593;53.652;10.168;2023-04-01T00:07:43;8.07;;;3.47;;
9115;SDS011;4593;53.652;10.168;2023-04-01T00:10:09;4.80;;;3.70;;
9115;SDS011;4593;53.652;10.168;2023-04-01T00:12:36;5.93;;;3.67;;
9115;SDS011;4593;53.652;10.168;2023-04-01T00:15:03;6.07;;;3.73;;
9115;SDS011;4593;53.652;10.168;2023-04-01T00:17:32;6.53;;;3.93;;
9115;SDS011;4593;53.652;10.168;2023-04-01T00:19:59;8.93;;;3.73;;
9115;SDS011;4593;53.652;10.168;2023-04-01T00:22:25;6.23;;;3.83;;
9115;SDS011;4593;53.652;10.168;2023-04-01T00:24:52;4.30;;;3.83;;
9115;SDS011;4593;53.652;10.168;2023-04-01T00:27:18;7.87;;;4.37;;
9115;SDS011;4593;53.652;10.168;2023-04-01T00:29:45;4.67;;;3.57;;
9115;SDS011;4593;53.652;10.168;2023-04-01T00:32:11;7.10;;;4.50;;
9115;SDS011;4593;53.652;10.168;2023-04-01T00:34:37;8.33;;;5.20;;
9115;SDS011;4593;53.652;10.168;2023-04-01T00:37:04;5.73;;;4.70;;
9115;SDS011;4593;53.652;10.168;2023-04-01T00:39:31;7.83;;;4.63;;
9115;SDS011;4593;53.652;10.168;2023-04-01T00:41:58;8.17;;;4.57;;
9115;SDS011;4593;53.652;10.168;2023-04-01T00:44:25;7.57;;;4.23;;
9115;SDS011;4593;53.652;10.168;2023-04-01T00:46:55;8.50;;;4.17;;
9115;SDS011;4593;53.652;10.168;2023-04-01T00:49:54;9.07;;;4.80;;
9115;SDS011;4593;53.652;10.168;2023-04-01T00:52:19;5.93;;;4.37;;
9115;SDS011;4593;53.652;10.168;2023-04-01T00:54:48;6.97;;;4.70;;
9115;SDS011;4593;53.652;10.168;2023-04-01T00:57:21;6.47;;;4.57;;
9115;SDS011;4593;53.652;10.168;2023-04-01T00:59:50;7.47;;;4.73;;
9115;SDS011;4593;53.652;10.168;2023-04-01T01:02:19;6.50;;;4.47;;
9115;SDS011;4593;53.652;10.168;2023-04-01T01:04:45;10.03;;;4.50;;
9115;SDS011;4593;53.652;10.168;2023-04-01T01:35:16;11.00;;;4.80;;
9115;SDS011;4593;53.652;10.168;2023-04-01T01:37:44;14.30;;;4.87;;
9115;SDS011;4593;53.652;10.168;2023-04-01T01:40:12;9.43;;;5.00;;
9115;SDS011;4593;53.652;10.168;2023-04-01T01:42:40;6.57;;;4.47;;
9115;SDS011;4593;53.652;10.168;2023-04-01T01:45:10;8.57;;;4.50;;
9115;SDS011;4593;53.652;10.168;2023-04-01T01:47:39;6.50;;;4.37;;
9115;SDS011;4593;53.652;10.168;2023-04-01T01:50:06;5.70;;;4.37;;
9115;SDS011;4593;53.652;10.168;2023-04-01T01:52:33;8.17;;;4.57;;
9115;SDS011;4593;53.652;10.168;2023-04-01T01:54:59;6.27;;;4.33;;
9115;SDS011;4593;53.652;10.168;2023-04-01T01:57:34;9.70;;;4.93;;
9115;SDS011;4593;53.652;10.168;2023-04-01T02:00:05;7.30;;;4.73;;
9115;SDS011;4593;53.652;10.168;2023-04-01T02:02:45;8.00;;;4.50;;
9115;SDS011;4593;53.652;10.168;2023-04-01T02:05:16;10.53;;;5.67;;
9115;SDS011;4593;53.652;10.168;2023-04-01T02:07:46;13.60;;;4.77;;
9115;SDS011;4593;53.652;10.168;2023-04-01T02:10:22;8.50;;;4.53;;
9115;SDS011;4593;53.652;10.168;2023-04-01T02:12:50;6.97;;;4.43;;
9115;SDS011;4593;53.652;10.168;2023-04-01T02:15:18;8.93;;;5.40;;
9115;SDS011;4593;53.652;10.168;2023-04-01T02:17:46;7.03;;;4.73;;
9115;SDS011;4593;53.652;10.168;2023-04-01T02:20:15;7.40;;;4.90;;
9115;SDS011;4593;53.652;10.168;2023-04-01T02:22:45;8.17;;;4.93;;
9115;SDS011;4593;53.652;10.168;2023-04-01T02:25:16;10.43;;;4.43;;
9115;SDS011;4593;53.652;10.168;2023-04-01T02:27:44;6.80;;;4.73;;
9115;SDS011;4593;53.652;10.168;2023-04-01T02:30:11;12.60;;;4.80;;
9115;SDS011;4593;53.652;10.168;2023-04-01T02:32:39;8.03;;;4.97;;
9115;SDS011;4593;53.652;10.168;2023-04-01T02:35:09;7.10;;;4.63;;
9115;SDS011;4593;53.652;10.168;2023-04-01T02:37:38;6.60;;;4.93;;
9115;SDS011;4593;53.652;10.168;2023-04-01T02:40:07;9.30;;;4.47;;
9115;SDS011;4593;53.652;10.168;2023-04-01T02:42:34;7.60;;;4.77;;
9115;SDS011;4593;53.652;10.168;2023-04-01T02:45:00;8.10;;;4.83;;
9115;SDS011;4593;53.652;10.168;2023-04-01T02:47:26;5.73;;;4.47;;
9115;SDS011;4593;53.652;10.168;2023-04-01T02:49:51;7.07;;;4.53;;
9115;SDS011;4593;53.652;10.168;2023-04-01T02:52:22;6.50;;;4.47;;
9115;SDS011;4593;53.652;10.168;2023-04-01T02:54:49;8.67;;;5.10;;
9115;SDS011;4593;53.652;10.168;2023-04-01T02:57:14;8.70;;;4.17;;
9115;SDS011;4593;53.652;10.168;2023-04-01T02:59:40;6.50;;;4.67;;
9115;SDS011;4593;53.652;10.168;2023-04-01T03:02:06;11.13;;;5.53;;
9115;SDS011;4593;53.652;10.168;2023-04-01T03:04:32;7.40;;;4.63;;
9115;SDS011;4593;53.652;10.168;2023-04-01T03:06:57;9.13;;;6.30;;
9115;SDS011;4593;53.652;10.168;2023-04-01T03:09:23;6.83;;;4.90;;
9115;SDS011;4593;53.652;10.168;2023-04-01T03:11:49;6.43;;;4.87;;
9115;SDS011;4593;53.652;10.168;2023-04-01T03:14:14;9.00;;;4.90;;
9115;SDS011;4593;53.652;10.168;2023-04-01T03:16:40;7.27;;;4.93;;
9115;SDS011;4593;53.652;10.168;2023-04-01T03:19:06;15.50;;;5.37;;
9115;SDS011;4593;53.652;10.168;2023-04-01T03:21:31;8.00;;;4.97;;
9115;SDS011;4593;53.652;10.168;2023-04-01T03:23:57;6.70;;;4.73;;
9115;SDS011;4593;53.652;10.168;2023-04-01T03:26:23;7.73;;;5.30;;
9115;SDS011;4593;53.652;10.168;2023-04-01T03:28:49;11.63;;;6.00;;
9115;SDS011;4593;53.652;10.168;2023-04-01T03:31:15;7.67;;;5.47;;
9115;SDS011;4593;53.652;10.168;2023-04-01T03:33:41;10.97;;;5.10;;
9115;SDS011;4593;53.652;10.168;2023-04-01T03:36:06;11.23;;;5.20;;
9115;SDS011;4593;53.652;10.168;2023-04-01T03:38:35;9.57;;;4.80;;
9115;SDS011;4593;53.652;10.168;2023-04-01T03:41:01;6.80;;;4.87;;
9115;SDS011;4593;53.652;10.168;2023-04-01T03:43:27;7.77;;;5.23;;
9115;SDS011;4593;53.652;10.168;2023-04-01T03:45:52;8.40;;;5.00;;
9115;SDS011;4593;53.652;10.168;2023-04-01T03:48:19;11.83;;;4.80;;
9115;SDS011;4593;53.652;10.168;2023-04-01T03:50:46;6.63;;;4.80;;
9115;SDS011;4593;53.652;10.168;2023-04-01T03:53:12;9.07;;;5.67;;
9115;SDS011;4593;53.652;10.168;2023-04-01T03:55:38;7.33;;;5.10;;
9115;SDS011;4593;53.652;10.168;2023-04-01T03:58:04;9.83;;;5.50;;
9115;SDS011;4593;53.652;10.168;2023-04-01T04:00:31;8.80;;;5.10;;
9115;SDS011;4593;53.652;10.168;2023-04-01T04:02:57;7.90;;;4.57;;
9115;SDS011;4593;53.652;10.168;2023-04-01T04:05:25;6.97;;;4.33;;
9115;SDS011;4593;53.652;10.168;2023-04-01T04:07:51;8.00;;;4.67;;
9115;SDS011;4593;53.652;10.168;2023-04-01T04:10:18;9.40;;;4.77;;
9115;SDS011;4593;53.652;10.168;2023-04-01T04:12:44;5.47;;;4.60;;
9115;SDS011;4593;53.652;10.168;2023-04-01T04:15:09;8.57;;;5.50;;
9115;SDS011;4593;53.652;10.168;2023-04-01T04:17:35;7.93;;;4.63;;
9115;SDS011;4593;53.652;10.168;2023-04-01T04:20:01;8.60;;;4.70;;
9115;SDS011;4593;53.652;10.168;2023-04-01T04:22:27;7.73;;;4.37;;
9115;SDS011;4593;53.652;10.168;2023-04-01T04:24:53;5.77;;;4.70;;
9115;SDS011;4593;53.652;10.168;2023-04-01T04:27:18;8.33;;;4.47;;
9115;SDS011;4593;53.652;10.168;2023-04-01T04:29:44;11.40;;;5.33;;
9115;SDS011;4593;53.652;10.168;2023-04-01T04:32:10;7.23;;;4.67;;
9115;SDS011;4593;53.652;10.168;2023-04-01T04:34:36;7.13;;;4.40;;
9115;SDS011;4593;53.652;10.168;2023-04-01T04:37:02;5.63;;;4.27;;
9115;SDS011;4593;53.652;10.168;2023-04-01T04:39:27;8.17;;;4.27;;
9115;SDS011;4593;53.652;10.168;2023-04-01T04:41:53;5.03;;;3.60;;
9115;SDS011;4593;53.652;10.168;2023-04-01T04:44:19;3.63;;;2.80;;
9115;SDS011;4593;53.652;10.168;2023-04-01T04:46:44;2.27;;;2.07;;
9115;SDS011;4593;53.652;10.168;2023-04-01T04:49:10;2.50;;;2.30;;
9115;SDS011;4593;53.652;10.168;2023-04-01T04:51:36;2.13;;;2.00;;
9115;SDS011;4593;53.652;10.168;2023-04-01T04:54:02;2.60;;;2.40;;
9115;SDS011;4593;53.652;10.168;2023-04-01T04:56:28;3.47;;;2.50;;
9115;SDS011;4593;53.652;10.168;2023-04-01T04:58:55;4.63;;;2.47;;
9115;SDS011;4593;53.652;10.168;2023-04-01T05:01:21;2.70;;;2.50;;
9115;SDS011;4593;53.652;10.168;2023-04-01T05:03:47;2.37;;;2.17;;
9115;SDS011;4593;53.652;10.168;2023-04-01T05:06:14;2.40;;;2.20;;
9115;SDS011;4593;53.652;10.168;2023-04-01T05:08:41;3.13;;;1.93;;
9115;SDS011;4593;53.652;10.168;2023-04-01T05:11:09;2.10;;;1.90;;
9115;SDS011;4593;53.652;10.168;2023-04-01T05:13:40;2.27;;;2.10;;
9115;SDS011;4593;53.652;10.168;2023-04-01T05:16:10;2.40;;;2.20;;
9115;SDS011;4593;53.652;10.168;2023-04-01T05:18:38;2.50;;;2.23;;
9115;SDS011;4593;53.652;10.168;2023-04-01T05:21:04;2.13;;;1.93;;
9115;SDS011;4593;53.652;10.168;2023-04-01T05:23:32;3.90;;;2.40;;
9115;SDS011;4593;53.652;10.168;2023-04-01T05:25:58;3.67;;;2.50;;
9115;SDS011;4593;53.652;10.168;2023-04-01T05:28:27;4.60;;;2.40;;
9115;SDS011;4593;53.652;10.168;2023-04-01T05:30:52;2.27;;;2.00;;
9115;SDS011;4593;53.652;10.168;2023-04-01T05:33:18;2.50;;;2.30;;
9115;SDS011;4593;53.652;10.168;2023-04-01T05:35:44;2.90;;;2.60;;
9115;SDS011;4593;53.652;10.168;2023-04-01T05:38:09;2.27;;;2.07;;
9115;SDS011;4593;53.652;10.168;2023-04-01T05:40:35;3.27;;;2.50;;
9115;SDS011;4593;53.652;10.168;2023-04-01T05:43:00;2.27;;;2.07;;
9115;SDS011;4593;53.652;10.168;2023-04-01T05:45:26;2.30;;;2.10;;
9115;SDS011;4593;53.652;10.168;2023-04-01T05:47:52;2.33;;;2.13;;
9115;SDS011;4593;53.652;10.168;2023-04-01T05:50:18;2.20;;;2.10;;
9115;SDS011;4593;53.652;10.168;2023-04-01T05:52:44;2.13;;;2.00;;
9115;SDS011;4593;53.652;10.168;2023-04-01T05:55:09;2.00;;;1.90;;
9115;SDS011;4593;53.652;10.168;2023-04-01T05:57:35;2.30;;;2.10;;
9115;SDS011;4593;53.652;10.168;2023-04-01T06:00:01;3.17;;;2.00;;
9115;SDS011;4593;53.652;10.168;2023-04-01T06:02:28;1.90;;;1.80;;
9115;SDS011;4593;53.652;10.168;2023-04-01T06:04:54;2.10;;;1.90;;
9115;SDS011;4593;53.652;10.168;2023-04-01T06:07:44;2.23;;;2.03;;
9115;SDS011;4593;53.652;10.168;2023-04-01T06:10:19;2.00;;;1.90;;
9115;SDS011;4593;53.652;10.168;2023-04-01T06:12:48;2.73;;;2.20;;
9115;SDS011;4593;53.652;10.168;2023-04-01T06:23:53;2.10;;;1.90;;
9115;SDS011;4593;53.652;10.168;2023-04-01T06:26:37;2.30;;;2.10;;
9115;SDS011;4593;53.652;10.168;2023-04-01T06:51:08;2.10;;;1.90;;
9115;SDS011;4593;53.652;10.168;2023-04-01T06:56:41;1.70;;;1.60;;
9115;SDS011;4593;53.652;10.168;2023-04-01T06:59:17;2.30;;;2.10;;
9115;SDS011;4593;53.652;10.168;2023-04-01T07:09:48;2.20;;;2.07;;
9115;SDS011;4593;53.652;10.168;2023-04-01T07:15:01;2.77;;;1.93;;
9115;SDS011;4593;53.652;10.168;2023-04-01T07:17:37;3.23;;;2.50;;
9115;SDS011;4593;53.652;10.168;2023-04-01T07:22:56;1.83;;;1.73;;
9115;SDS011;4593;53.652;10.168;2023-04-01T07:25:30;2.50;;;2.30;;
9115;SDS011;4593;53.652;10.168;2023-04-01T07:28:04;2.00;;;1.90;;
9115;SDS011;4593;53.652;10.168;2023-04-01T07:30:50;2.20;;;2.03;;
9115;SDS011;4593;53.652;10.168;2023-04-01T07:33:33;4.00;;;2.30;;
9115;SDS011;4593;53.652;10.168;2023-04-01T07:36:13;2.07;;;1.90;;
9115;SDS011;4593;53.652;10.168;2023-04-01T07:39:11;1.90;;;1.80;;
9115;SDS011;4593;53.652;10.168;2023-04-01T07:44:57;2.20;;;1.87;;
9115;SDS011;4593;53.652;10.168;2023-04-01T07:50:02;1.87;;;1.77;;
9115;SDS011;4593;53.652;10.168;2023-04-01T07:52:37;2.87;;;2.00;;
9115;SDS011;4593;53.652;10.168;2023-04-01T08:00:47;1.87;;;1.77;;
9115;SDS011;4593;53.652;10.168;2023-04-01T08:06:15;1.90;;;1.80;;
9115;SDS011;4593;53.652;10.168;2023-04-01T08:17:40;2.03;;;1.93;;
9115;SDS011;4593;53.652;10.168;2023-04-01T08:23:11;2.00;;;1.90;;
9115;SDS011;4593;53.652;10.168;2023-04-01T08:26:18;1.93;;;1.83;;
9115;SDS011;4593;53.652;10.168;2023-04-01T08:28:44;1.93;;;1.80;;
9115;SDS011;4593;53.652;10.168;2023-04-01T08:34:36;2.07;;;1.97;;
9115;SDS011;4593;53.652;10.168;2023-04-01T08:37:09;2.07;;;1.97;;
9115;SDS011;4593;53.652;10.168;2023-04-01T08:39:41;1.80;;;1.70;;
9115;SDS011;4593;53.652;10.168;2023-04-01T08:45:10;2.47;;;2.10;;
9115;SDS011;4593;53.652;10.168;2023-04-01T08:48:16;1.97;;;1.83;;
9115;SDS011;4593;53.652;10.168;2023-04-01T08:56:06;4.10;;;1.77;;
9115;SDS011;4593;53.652;10.168;2023-04-01T08:58:47;1.80;;;1.70;;
9115;SDS011;4593;53.652;10.168;2023-04-01T09:01:20;2.00;;;1.90;;
9115;SDS011;4593;53.652;10.168;2023-04-01T09:06:35;2.00;;;1.90;;
9115;SDS011;4593;53.652;10.168;2023-04-01T09:42:56;3.17;;;1.80;;
9115;SDS011;4593;53.652;10.168;2023-04-01T09:54:13;2.00;;;1.90;;
9115;SDS011;4593;53.652;10.168;2023-04-01T09:59:24;1.97;;;1.87;;
9115;SDS011;4593;53.652;10.168;2023-04-01T10:16:01;1.90;;;1.80;;
9115;SDS011;4593;53.652;10.168;2023-04-01T10:35:44;1.77;;;1.67;;
9115;SDS011;4593;53.652;10.168;2023-04-01T10:41:16;2.40;;;2.10;;
9115;SDS011;4593;53.652;10.168;2023-04-01T11:12:31;3.03;;;2.60;;
9115;SDS011;4593;53.652;10.168;2023-04-01T11:18:35;2.60;;;2.27;;
9115;SDS011;4593;53.652;10.168;2023-04-01T11:27:10;5.60;;;2.13;;
9115;SDS011;4593;53.652;10.168;2023-04-01T11:30:32;3.13;;;2.43;;
9115;SDS011;4593;53.652;10.168;2023-04-01T11:38:35;6.90;;;3.03;;
9115;SDS011;4593;53.652;10.168;2023-04-01T11:46:52;9.50;;;3.50;;
9115;SDS011;4593;53.652;10.168;2023-04-01T11:55:43;3.93;;;3.60;;
9115;SDS011;4593;53.652;10.168;2023-04-01T12:01:16;6.03;;;3.10;;
9115;SDS011;4593;53.652;10.168;2023-04-01T12:15:00;3.90;;;3.30;;
9115;SDS011;4593;53.652;10.168;2023-04-01T12:59:19;5.30;;;4.50;;
9115;SDS011;4593;53.652;10.168;2023-04-01T13:15:41;5.33;;;3.50;;
9115;SDS011;4593;53.652;10.168;2023-04-01T13:18:30;9.00;;;3.50;;
9115;SDS011;4593;53.652;10.168;2023-04-01T13:21:10;4.17;;;3.33;;
9115;SDS011;4593;53.652;10.168;2023-04-01T13:37:11;5.47;;;4.40;;
9115;SDS011;4593;53.652;10.168;2023-04-01T13:50:37;5.73;;;3.90;;
9115;SDS011;4593;53.652;10.168;2023-04-01T13:58:54;5.30;;;4.50;;
9115;SDS011;4593;53.652;10.168;2023-04-01T14:04:39;4.47;;;3.70;;
9115;SDS011;4593;53.652;10.168;2023-04-01T14:07:32;4.97;;;4.37;;
9115;SDS011;4593;53.652;10.168;2023-04-01T14:13:15;8.33;;;3.80;;
9115;SDS011;4593;53.652;10.168;2023-04-01T14:15:56;6.93;;;3.90;;
9115;SDS011;4593;53.652;10.168;2023-04-01T14:18:47;6.40;;;4.87;;
9115;SDS011;4593;53.652;10.168;2023-04-01T14:24:55;7.17;;;4.73;;
9115;SDS011;4593;53.652;10.168;2023-04-01T14:27:50;17.13;;;4.87;;
9115;SDS011;4593;53.652;10.168;2023-04-01T14:30:26;8.53;;;4.73;;
9115;SDS011;4593;53.652;10.168;2023-04-01T14:33:14;9.37;;;5.10;;
9115;SDS011;4593;53.652;10.168;2023-04-01T14:36:07;12.50;;;4.73;;
9115;SDS011;4593;53.652;10.168;2023-04-01T14:47:43;9.13;;;5.13;;
9115;SDS011;4593;53.652;10.168;2023-04-01T14:50:29;4.50;;;4.07;;
9115;SDS011;4593;53.652;10.168;2023-04-01T14:58:16;8.47;;;3.77;;
9115;SDS011;4593;53.652;10.168;2023-04-01T15:03:19;4.83;;;4.17;;
9115;SDS011;4593;53.652;10.168;2023-04-01T15:08:56;4.67;;;3.90;;
9115;SDS011;4593;53.652;10.168;2023-04-01T15:11:47;6.73;;;4.30;;
9115;SDS011;4593;53.652;10.168;2023-04-01T15:36:21;4.93;;;3.77;;
9115;SDS011;4593;53.652;10.168;2023-04-01T15:46:59;7.80;;;4.73;;
9115;SDS011;4593;53.652;10.168;2023-04-01T15:49:41;5.30;;;4.60;;
9115;SDS011;4593;53.652;10.168;2023-04-01T15:57:56;6.83;;;3.90;;
9115;SDS011;4593;53.652;10.168;2023-04-01T16:00:52;9.90;;;4.63;;
9115;SDS011;4593;53.652;10.168;2023-04-01T16:03:39;7.57;;;4.10;;
9115;SDS011;4593;53.652;10.168;2023-04-01T16:06:32;5.17;;;4.23;;
9115;SDS011;4593;53.652;10.168;2023-04-01T16:12:02;6.73;;;4.70;;
9115;SDS011;4593;53.652;10.168;2023-04-01T16:31:08;4.83;;;3.63;;
9115;SDS011;4593;53.652;10.168;2023-04-01T16:33:52;8.33;;;4.60;;
9115;SDS011;4593;53.652;10.168;2023-04-01T16:47:36;5.47;;;3.90;;
9115;SDS011;4593;53.652;10.168;2023-04-01T16:50:25;6.73;;;3.60;;
9115;SDS011;4593;53.652;10.168;2023-04-01T17:01:09;9.90;;;4.37;;
9115;SDS011;4593;53.652;10.168;2023-04-01T17:03:41;6.13;;;3.80;;
9115;SDS011;4593;53.652;10.168;2023-04-01T17:06:25;4.70;;;3.50;;
9115;SDS011;4593;53.652;10.168;2023-04-01T17:14:38;6.73;;;3.70;;
9115;SDS011;4593;53.652;10.168;2023-04-01T17:17:35;4.17;;;3.77;;
9115;SDS011;4593;53.652;10.168;2023-04-01T17:20:26;7.73;;;4.10;;
9115;SDS011;4593;53.652;10.168;2023-04-01T17:23:10;5.03;;;3.40;;
9115;SDS011;4593;53.652;10.168;2023-04-01T17:28:46;4.60;;;3.70;;
9115;SDS011;4593;53.652;10.168;2023-04-01T17:31:22;3.30;;;3.00;;
9115;SDS011;4593;53.652;10.168;2023-04-01T17:34:09;5.93;;;3.33;;
9115;SDS011;4593;53.652;10.168;2023-04-01T17:37:05;5.90;;;3.73;;
9115;SDS011;4593;53.652;10.168;2023-04-01T17:42:26;3.83;;;2.97;;
9115;SDS011;4593;53.652;10.168;2023-04-01T17:53:17;4.57;;;3.37;;
9115;SDS011;4593;53.652;10.168;2023-04-01T18:15:53;4.03;;;3.63;;
9115;SDS011;4593;53.652;10.168;2023-04-01T18:18:35;10.60;;;3.80;;
9115;SDS011;4593;53.652;10.168;2023-04-01T18:21:35;3.53;;;3.23;;
9115;SDS011;4593;53.652;10.168;2023-04-01T18:29:58;3.73;;;3.10;;
9115;SDS011;4593;53.652;10.168;2023-04-01T18:43:18;4.87;;;4.37;;
9115;SDS011;4593;53.652;10.168;2023-04-01T18:46:22;4.30;;;3.13;;
9115;SDS011;4593;53.652;10.168;2023-04-01T18:48:52;4.03;;;3.33;;
9115;SDS011;4593;53.652;10.168;2023-04-01T18:57:10;3.57;;;3.27;;
9115;SDS011;4593;53.652;10.168;2023-04-01T18:59:45;5.80;;;3.70;;
9115;SDS011;4593;53.652;10.168;2023-04-01T19:02:29;9.80;;;3.30;;
9115;SDS011;4593;53.652;10.168;2023-04-01T19:05:09;6.47;;;3.43;;
9115;SDS011;4593;53.652;10.168;2023-04-01T19:07:46;10.10;;;3.77;;
9115;SDS011;4593;53.652;10.168;2023-04-01T19:10:15;7.33;;;4.27;;
9115;SDS011;4593;53.652;10.168;2023-04-01T19:13:06;6.80;;;3.30;;
9115;SDS011;4593;53.652;10.168;2023-04-01T19:15:49;5.63;;;3.33;;
9115;SDS011;4593;53.652;10.168;2023-04-01T19:43:26;10.43;;;4.03;;
9115;SDS011;4593;53.652;10.168;2023-04-01T19:46:14;5.17;;;3.37;;
9115;SDS011;4593;53.652;10.168;2023-04-01T19:56:39;3.00;;;2.80;;
9115;SDS011;4593;53.652;10.168;2023-04-01T20:04:43;9.90;;;3.37;;
9115;SDS011;4593;53.652;10.168;2023-04-01T20:07:28;3.07;;;2.77;;
9115;SDS011;4593;53.652;10.168;2023-04-01T20:10:07;5.50;;;2.97;;
9115;SDS011;4593;53.652;10.168;2023-04-01T20:15:33;3.67;;;3.37;;
9115;SDS011;4593;53.652;10.168;2023-04-01T20:20:57;3.17;;;2.70;;
9115;SDS011;4593;53.652;10.168;2023-04-01T20:26:46;4.83;;;3.33;;
9115;SDS011;4593;53.652;10.168;2023-04-01T20:33:05;3.47;;;2.93;;
9115;SDS011;4593;53.652;10.168;2023-04-01T20:40:46;3.80;;;2.90;;
9115;SDS011;4593;53.652;10.168;2023-04-01T20:49:33;6.30;;;3.00;;
9115;SDS011;4593;53.652;10.168;2023-04-01T20:52:02;4.40;;;3.20;;
9115;SDS011;4593;53.652;10.168;2023-04-01T20:57:17;5.70;;;3.27;;
9115;SDS011;4593;53.652;10.168;2023-04-01T21:08:39;6.07;;;2.40;;
9115;SDS011;4593;53.652;10.168;2023-04-01T21:11:18;4.33;;;2.23;;
9115;SDS011;4593;53.652;10.168;2023-04-01T21:13:56;2.60;;;2.40;;
9115;SDS011;4593;53.652;10.168;2023-04-01T21:16:53;2.60;;;2.40;;
9115;SDS011;4593;53.652;10.168;2023-04-01T21:36:43;5.77;;;2.90;;
9115;SDS011;4593;53.652;10.168;2023-04-01T21:39:38;2.90;;;2.57;;
9115;SDS011;4593;53.652;10.168;2023-04-01T21:56:22;4.70;;;2.73;;
9115;SDS011;4593;53.652;10.168;2023-04-01T21:59:17;2.37;;;2.17;;
9115;SDS011;4593;53.652;10.168;2023-04-01T22:04:50;3.40;;;2.43;;
9115;SDS011;4593;53.652;10.168;2023-04-01T22:13:03;3.03;;;2.70;;
9115;SDS011;4593;53.652;10.168;2023-04-01T22:15:53;3.30;;;2.30;;
9115;SDS011;4593;53.652;10.168;2023-04-01T22:21:27;3.00;;;2.00;;
9115;SDS011;4593;53.652;10.168;2023-04-01T22:24:00;2.80;;;2.10;;
9115;SDS011;4593;53.652;10.168;2023-04-01T22:29:29;2.90;;;2.57;;
9115;SDS011;4593;53.652;10.168;2023-04-01T22:32:31;4.23;;;2.10;;
9115;SDS011;4593;53.652;10.168;2023-04-01T22:43:12;3.23;;;2.93;;
9115;SDS011;4593;53.652;10.168;2023-04-01T22:45:53;2.07;;;1.97;;
9115;SDS011;4593;53.652;10.168;2023-04-01T22:51:18;6.55;;;2.25;;
9115;SDS011;4593;53.652;10.168;2023-04-01T22:53:51;5.60;;;2.00;;
9115;SDS011;4593;53.652;10.168;2023-04-01T22:56:28;2.83;;;2.57;;
9115;SDS011;4593;53.652;10.168;2023-04-01T22:59:06;2.08;;;1.90;;
9115;SDS011;4593;53.652;10.168;2023-04-01T23:01:36;2.13;;;2.03;;
9115;SDS011;4593;53.652;10.168;2023-04-01T23:04:08;2.00;;;1.80;;
9115;SDS011;4593;53.652;10.168;2023-04-01T23:06:42;6.20;;;2.38;;
9115;SDS011;4593;53.652;10.168;2023-04-01T23:09:14;1.90;;;1.80;;
9115;SDS011;4593;53.652;10.168;2023-04-01T23:28:19;3.10;;;2.83;;
9115;SDS011;4593;53.652;10.168;2023-04-01T23:33:54;2.50;;;2.30;;
9115;SDS011;4593;53.652;10.168;2023-04-01T23:36:25;2.55;;;2.35;;
9115;SDS011;4593;53.652;10.168;2023-04-01T23:38:51;2.80;;;2.47;;
9115;SDS011;4593;53.652;10.168;2023-04-01T23:41:23;2.07;;;1.97;;
9115;SDS011;4593;53.652;10.168;2023-04-01T23:44:10;2.50;;;2.30;;
9115;SDS011;4593;53.652;10.168;2023-04-01T23:46:38;2.50;;;2.10;;
9115;SDS011;4593;53.652;10.168;2023-04-01T23:49:14;2.30;;;2.10;;
9115;SDS011;4593;53.652;10.168;2023-04-01T23:51:59;2.20;;;2.07;;
9115;SDS011;4593;53.652;10.168;2023-04-01T23:57:27;2.20;;;1.97;;
